Time;durP1;ratioP1;P1;durP2;ratioP2;P2;SDS_P1;SDS_P2;PMS_P1;PMS_P2;Temp;Humidity;BMP_temperature;BMP_pressure;BME280_temperature;BME280_humidity;BME280_pressure;Samples;Min_cycle;Max_cycle;Signal;HPM_P1;HPM_P2
2021/08/07 00:00:59;;;;;;;4.40;1.50;;;16.70;99.90;;;;;;5019142;28;20194;-81
2021/08/07 00:03:25;;;;;;;3.00;1.70;;;16.80;99.90;;;;;;5018832;28;20210;-81
2021/08/07 00:05:51;;;;;;;4.33;1.53;;;16.70;99.90;;;;;;5018488;28;20178;-80
2021/08/07 00:08:16;;;;;;;2.90;1.50;;;16.70;99.90;;;;;;5018421;28;20183;-81
2021/08/07 00:10:42;;;;;;;1.90;1.70;;;16.60;99.90;;;;;;5019450;28;20251;-82
2021/08/07 00:13:08;;;;;;;4.57;1.63;;;16.60;99.90;;;;;;5019082;28;20177;-81
2021/08/07 00:15:34;;;;;;;3.90;2.13;;;16.40;99.90;;;;;;5018293;28;20225;-81
2021/08/07 00:17:59;;;;;;;1.63;1.53;;;16.40;99.90;;;;;;5018617;28;20185;-81
2021/08/07 00:20:26;;;;;;;2.63;1.60;;;16.40;99.90;;;;;;5020200;28;20240;-81
2021/08/07 00:22:52;;;;;;;3.43;1.80;;;16.50;99.90;;;;;;5017262;28;20210;-81
2021/08/07 00:25:18;;;;;;;2.00;1.67;;;16.50;99.90;;;;;;5016784;28;20236;-81
2021/08/07 00:27:44;;;;;;;2.60;1.80;;;16.50;99.90;;;;;;5017852;28;20201;-81
2021/08/07 00:30:11;;;;;;;3.07;1.83;;;16.60;99.90;;;;;;5016852;28;20558;-81
2021/08/07 00:32:37;;;;;;;3.40;1.60;;;16.60;99.90;;;;;;5016985;28;20197;-81
2021/08/07 00:35:03;;;;;;;3.77;1.50;;;16.60;99.90;;;;;;5016572;28;20221;-81
2021/08/07 00:37:29;;;;;;;1.93;1.30;;;16.50;99.90;;;;;;5016543;28;20680;-80
2021/08/07 00:39:54;;;;;;;2.20;1.80;;;16.60;99.90;;;;;;5015223;28;20181;-81
2021/08/07 00:42:20;;;;;;;2.43;1.20;;;16.60;99.90;;;;;;5016813;28;20259;-81
2021/08/07 00:44:46;;;;;;;4.30;1.50;;;16.70;99.90;;;;;;5016311;28;20204;-81
2021/08/07 00:47:11;;;;;;;3.70;1.57;;;16.60;99.90;;;;;;5016427;28;20236;-81
2021/08/07 00:49:37;;;;;;;1.93;1.50;;;16.60;99.90;;;;;;5023439;28;20181;-81
2021/08/07 00:52:03;;;;;;;3.37;1.70;;;16.60;99.90;;;;;;5015243;28;20184;-81
2021/08/07 00:54:29;;;;;;;2.23;1.17;;;16.60;99.90;;;;;;5016926;28;20665;-80
2021/08/07 00:56:55;;;;;;;3.07;1.37;;;16.50;99.90;;;;;;5016232;28;20198;-80
2021/08/07 00:59:20;;;;;;;4.20;1.33;;;16.50;99.90;;;;;;5016315;28;20654;-81
2021/08/07 01:01:57;;;;;;;4.00;1.63;;;16.50;99.90;;;;;;5015952;28;20185;-81
2021/08/07 01:04:27;;;;;;;3.43;1.50;;;16.40;99.90;;;;;;5015939;28;20219;-81
2021/08/07 01:07:07;;;;;;;3.20;1.63;;;16.40;99.90;;;;;;5016319;28;20175;-80
2021/08/07 01:09:41;;;;;;;3.67;2.20;;;16.30;99.90;;;;;;5015187;28;20191;-81
2021/08/07 01:12:17;;;;;;;2.67;1.50;;;16.30;99.90;;;;;;5016836;28;20180;-81
2021/08/07 01:14:44;;;;;;;10.43;2.03;;;16.40;99.90;;;;;;5016200;28;20200;-81
2021/08/07 01:17:14;;;;;;;3.20;1.20;;;16.30;99.90;;;;;;5018883;28;20256;-81
2021/08/07 01:19:53;;;;;;;3.77;1.40;;;16.30;99.90;;;;;;5017484;28;20560;-81
2021/08/07 01:22:22;;;;;;;3.47;1.43;;;16.40;99.90;;;;;;5017019;28;20636;-81
2021/08/07 01:25:11;;;;;;;3.80;1.40;;;16.40;99.90;;;;;;5016803;28;20739;-81
2021/08/07 01:27:39;;;;;;;3.93;1.50;;;16.40;99.90;;;;;;5017071;28;20270;-82
2021/08/07 01:30:09;;;;;;;2.87;1.27;;;16.50;99.90;;;;;;5015330;28;20177;-81
2021/08/07 01:32:37;;;;;;;5.37;1.40;;;16.40;99.90;;;;;;5017714;28;20179;-81
2021/08/07 01:35:06;;;;;;;2.33;1.40;;;16.40;99.90;;;;;;5017108;28;20650;-81
2021/08/07 01:37:32;;;;;;;3.70;1.67;;;16.30;99.90;;;;;;5022191;28;20238;-82
2021/08/07 01:39:58;;;;;;;2.70;1.60;;;16.30;99.90;;;;;;5016505;28;20268;-81
2021/08/07 01:42:25;;;;;;;2.83;1.43;;;16.30;99.90;;;;;;5014982;28;20180;-82
2021/08/07 01:44:51;;;;;;;2.33;1.17;;;16.40;99.90;;;;;;5017904;28;20224;-81
2021/08/07 01:47:22;;;;;;;1.40;1.23;;;16.30;99.90;;;;;;5018234;28;20174;-81
2021/08/07 01:50:04;;;;;;;3.97;1.43;;;16.30;99.90;;;;;;5014839;28;20193;-82
2021/08/07 01:52:35;;;;;;;1.33;1.20;;;16.40;99.90;;;;;;5016034;28;20176;-81
2021/08/07 01:55:07;;;;;;;1.20;1.00;;;16.40;99.90;;;;;;5018198;28;20204;-81
2021/08/07 01:57:41;;;;;;;2.60;1.33;;;16.40;99.90;;;;;;5018813;28;20564;-81
2021/08/07 02:00:12;;;;;;;2.57;1.40;;;16.30;99.90;;;;;;5018508;28;20646;-82
2021/08/07 02:02:40;;;;;;;2.30;1.33;;;16.20;99.90;;;;;;5018043;28;20187;-81
2021/08/07 02:05:06;;;;;;;2.40;1.37;;;16.20;99.90;;;;;;5016944;28;20208;-81
2021/08/07 02:07:32;;;;;;;5.43;1.53;;;16.30;99.90;;;;;;5016350;28;20182;-81
2021/08/07 02:09:58;;;;;;;2.60;1.80;;;16.30;99.90;;;;;;5016427;28;20546;-81
2021/08/07 02:12:24;;;;;;;4.77;1.80;;;16.30;99.90;;;;;;5018058;28;20243;-81
2021/08/07 02:14:53;;;;;;;2.27;1.47;;;16.30;99.90;;;;;;5016113;28;20199;-81
2021/08/07 02:17:19;;;;;;;1.67;1.27;;;16.30;99.90;;;;;;5018127;28;20186;-81
2021/08/07 02:19:46;;;;;;;3.10;1.53;;;16.30;99.90;;;;;;5017986;28;20217;-81
2021/08/07 02:22:11;;;;;;;3.67;1.40;;;16.30;99.90;;;;;;5019439;28;20193;-81
2021/08/07 02:24:37;;;;;;;4.13;1.40;;;16.30;99.90;;;;;;5018657;28;20202;-81
2021/08/07 02:27:04;;;;;;;4.83;1.20;;;16.30;99.90;;;;;;5016680;28;20272;-81
2021/08/07 02:29:32;;;;;;;2.27;1.50;;;16.30;99.90;;;;;;5017029;28;20180;-81
2021/08/07 02:31:59;;;;;;;4.97;1.33;;;16.20;99.90;;;;;;5017138;28;20268;-81
2021/08/07 02:34:27;;;;;;;2.53;1.33;;;16.20;99.90;;;;;;5016892;28;20264;-81
2021/08/07 02:36:55;;;;;;;2.43;1.20;;;16.20;99.90;;;;;;5017534;28;20176;-81
2021/08/07 02:39:22;;;;;;;2.33;1.20;;;16.10;99.90;;;;;;5015933;28;20178;-80
2021/08/07 02:41:48;;;;;;;2.20;1.50;;;16.10;99.90;;;;;;5017432;28;20182;-81
2021/08/07 02:44:15;;;;;;;2.37;1.10;;;16.10;99.90;;;;;;5019100;28;20300;-81
2021/08/07 02:46:41;;;;;;;2.77;1.53;;;16.10;99.90;;;;;;5016956;28;20179;-81
2021/08/07 02:49:07;;;;;;;4.03;1.77;;;16.10;99.90;;;;;;5018639;28;20176;-81
2021/08/07 02:51:34;;;;;;;1.80;1.50;;;16.10;99.90;;;;;;5018958;28;20197;-81
2021/08/07 02:54:01;;;;;;;3.90;1.63;;;16.10;99.90;;;;;;5018463;28;20684;-81
2021/08/07 02:56:26;;;;;;;3.80;1.40;;;16.20;99.90;;;;;;5016635;28;20191;-81
2021/08/07 02:58:52;;;;;;;4.60;1.47;;;16.10;99.90;;;;;;5018512;28;20181;-81
2021/08/07 03:01:18;;;;;;;3.07;1.50;;;16.10;99.90;;;;;;5018477;28;20187;-81
2021/08/07 03:03:43;;;;;;;3.00;1.67;;;16.10;99.90;;;;;;5017825;28;20239;-81
2021/08/07 03:06:09;;;;;;;2.50;1.70;;;15.90;99.90;;;;;;5017379;28;20293;-81
2021/08/07 03:08:35;;;;;;;3.70;1.17;;;16.00;99.90;;;;;;5017059;28;20182;-81
2021/08/07 03:11:01;;;;;;;4.63;1.20;;;16.00;99.90;;;;;;5017132;28;20541;-81
2021/08/07 03:13:27;;;;;;;1.73;1.27;;;16.00;99.90;;;;;;5019498;28;20191;-81
2021/08/07 03:15:52;;;;;;;2.17;1.50;;;16.00;99.90;;;;;;5021476;28;20187;-81
2021/08/07 03:18:18;;;;;;;4.87;1.63;;;15.90;99.90;;;;;;5019632;28;20270;-81
2021/08/07 03:20:44;;;;;;;3.70;1.20;;;16.00;99.90;;;;;;5020499;28;20344;-82
2021/08/07 03:23:09;;;;;;;1.90;1.60;;;16.00;99.90;;;;;;5021338;28;20208;-81
2021/08/07 03:25:36;;;;;;;6.50;1.33;;;16.00;99.90;;;;;;5021507;28;20209;-81
2021/08/07 03:28:03;;;;;;;2.93;1.60;;;16.00;99.90;;;;;;5022157;28;20182;-81
2021/08/07 03:30:29;;;;;;;3.83;1.20;;;16.10;99.90;;;;;;5021395;28;20188;-81
2021/08/07 03:32:55;;;;;;;3.60;1.40;;;16.10;99.90;;;;;;5021786;28;20188;-82
2021/08/07 03:35:21;;;;;;;4.23;1.40;;;16.10;99.90;;;;;;5019912;28;20219;-81
2021/08/07 03:37:47;;;;;;;2.07;1.43;;;16.00;99.90;;;;;;5020173;28;20214;-83
2021/08/07 03:40:14;;;;;;;3.40;1.17;;;16.10;99.90;;;;;;5020620;28;20194;-81
2021/08/07 03:42:41;;;;;;;2.30;1.37;;;16.10;99.90;;;;;;5017486;28;20189;-80
2021/08/07 03:45:08;;;;;;;3.47;1.23;;;16.10;99.90;;;;;;5017567;28;20207;-81
2021/08/07 03:47:48;;;;;;;3.77;1.30;;;16.00;99.90;;;;;;5018707;28;20266;-81
2021/08/07 03:50:14;;;;;;;2.90;1.30;;;16.00;99.90;;;;;;5019604;28;20265;-80
2021/08/07 03:52:40;;;;;;;1.83;1.30;;;16.10;99.90;;;;;;5016770;28;20649;-82
2021/08/07 03:55:06;;;;;;;3.93;1.70;;;16.00;99.90;;;;;;5018721;28;20201;-81
2021/08/07 03:57:33;;;;;;;1.97;1.50;;;15.90;99.90;;;;;;5018650;28;20181;-80
2021/08/07 03:59:58;;;;;;;3.47;1.13;;;15.90;99.90;;;;;;5018804;28;20259;-81
2021/08/07 04:02:24;;;;;;;3.87;1.20;;;15.90;99.90;;;;;;5011235;28;20187;-81
2021/08/07 04:04:50;;;;;;;2.77;1.50;;;15.90;99.90;;;;;;5001997;28;20237;-81
2021/08/07 04:07:15;;;;;;;2.53;1.43;;;16.00;99.90;;;;;;5013695;28;20187;-83
2021/08/07 04:09:41;;;;;;;3.50;1.67;;;15.90;99.90;;;;;;5017061;28;20231;-82
2021/08/07 04:12:06;;;;;;;3.33;1.37;;;15.90;99.90;;;;;;5017988;28;20205;-81
2021/08/07 04:14:36;;;;;;;1.33;1.20;;;16.00;99.90;;;;;;5018212;28;20209;-81
2021/08/07 04:17:01;;;;;;;3.80;1.63;;;16.00;99.90;;;;;;5016615;28;20193;-81
2021/08/07 04:19:27;;;;;;;2.43;1.40;;;15.80;99.90;;;;;;5019684;28;20261;-81
2021/08/07 04:21:53;;;;;;;4.23;1.50;;;15.80;99.90;;;;;;5020866;28;20254;-81
2021/08/07 04:24:18;;;;;;;2.90;1.10;;;15.80;99.90;;;;;;5018613;28;20213;-82
2021/08/07 04:26:44;;;;;;;3.03;1.23;;;15.90;99.90;;;;;;5019398;28;20716;-82
2021/08/07 04:29:09;;;;;;;4.37;1.37;;;15.90;99.90;;;;;;5019480;28;20185;-80
2021/08/07 04:31:35;;;;;;;4.23;1.30;;;15.90;99.90;;;;;;5020959;28;20173;-82
2021/08/07 04:34:01;;;;;;;2.23;1.10;;;16.00;99.90;;;;;;5021225;28;20218;-82
2021/08/07 04:36:26;;;;;;;3.13;1.50;;;15.90;99.90;;;;;;5020948;28;20200;-82
2021/08/07 04:38:52;;;;;;;2.07;1.03;;;15.80;99.90;;;;;;5020378;28;20672;-82
2021/08/07 04:41:17;;;;;;;1.73;1.30;;;15.80;99.90;;;;;;5017810;28;20179;-82
2021/08/07 04:43:43;;;;;;;3.77;1.43;;;15.90;99.90;;;;;;5018605;28;20204;-81
2021/08/07 04:46:09;;;;;;;2.57;1.30;;;16.00;99.90;;;;;;5016991;28;20591;-81
2021/08/07 04:48:34;;;;;;;6.33;1.50;;;15.90;99.90;;;;;;5017175;28;20236;-81
2021/08/07 04:51:00;;;;;;;6.00;1.30;;;15.90;99.90;;;;;;5016855;28;20173;-80
2021/08/07 04:53:26;;;;;;;2.93;1.30;;;16.00;99.90;;;;;;5017124;28;20256;-81
2021/08/07 04:55:51;;;;;;;4.30;1.30;;;16.00;99.90;;;;;;5017165;28;20239;-81
2021/08/07 04:58:17;;;;;;;1.87;1.20;;;16.00;99.90;;;;;;5018574;28;20175;-82
2021/08/07 05:00:42;;;;;;;5.23;1.30;;;16.00;99.90;;;;;;5016979;28;20184;-81
2021/08/07 05:03:08;;;;;;;2.60;1.20;;;16.00;99.90;;;;;;5019934;28;20185;-81
2021/08/07 05:05:34;;;;;;;3.33;1.23;;;16.00;99.90;;;;;;5018934;28;20201;-82
2021/08/07 05:08:00;;;;;;;2.40;1.10;;;16.10;99.90;;;;;;5017707;28;20178;-82
2021/08/07 05:10:25;;;;;;;2.10;1.37;;;16.10;99.90;;;;;;5019365;28;20198;-81
2021/08/07 05:12:51;;;;;;;1.57;0.93;;;16.10;99.90;;;;;;5018258;28;20174;-81
2021/08/07 05:15:16;;;;;;;2.93;1.23;;;16.10;99.90;;;;;;5019971;28;20197;-81
2021/08/07 05:17:42;;;;;;;2.60;1.30;;;16.10;99.90;;;;;;5018648;28;20190;-82
2021/08/07 05:20:08;;;;;;;4.23;1.50;;;16.10;99.90;;;;;;5018488;28;20185;-81
2021/08/07 05:22:34;;;;;;;2.87;1.30;;;16.10;99.90;;;;;;5018956;28;20195;-82
2021/08/07 05:25:00;;;;;;;2.23;1.20;;;16.20;99.90;;;;;;5018895;28;20214;-81
2021/08/07 05:27:26;;;;;;;3.07;1.20;;;16.10;99.90;;;;;;5017880;28;20236;-81
2021/08/07 05:29:51;;;;;;;2.50;1.50;;;16.10;99.90;;;;;;5017168;28;20232;-81
2021/08/07 05:32:17;;;;;;;3.73;1.43;;;16.10;99.90;;;;;;5017783;28;20181;-81
2021/08/07 05:34:43;;;;;;;2.23;1.03;;;16.20;99.90;;;;;;5016298;28;20223;-81
2021/08/07 05:37:09;;;;;;;2.30;1.27;;;16.20;99.90;;;;;;5021334;28;20182;-80
2021/08/07 05:39:34;;;;;;;2.07;1.30;;;16.20;99.90;;;;;;5018997;28;20271;-82
2021/08/07 05:42:00;;;;;;;3.83;1.30;;;16.20;99.90;;;;;;5018893;28;20192;-81
2021/08/07 05:44:25;;;;;;;4.80;1.40;;;16.20;99.90;;;;;;5019786;28;20335;-81
2021/08/07 05:46:51;;;;;;;2.13;1.00;;;16.20;99.90;;;;;;5019032;28;20319;-81
2021/08/07 05:49:17;;;;;;;1.83;1.10;;;16.20;99.90;;;;;;5018678;28;20178;-81
2021/08/07 05:51:42;;;;;;;2.10;1.53;;;16.20;99.90;;;;;;5019707;28;20171;-81
2021/08/07 05:54:08;;;;;;;1.80;1.43;;;16.30;99.90;;;;;;5020005;28;20232;-81
2021/08/07 05:56:33;;;;;;;1.90;1.20;;;16.30;99.90;;;;;;5018607;28;20181;-81
2021/08/07 05:58:59;;;;;;;1.83;1.10;;;16.30;99.90;;;;;;5020045;28;20199;-81
2021/08/07 06:01:25;;;;;;;4.30;1.40;;;16.30;99.90;;;;;;5018355;28;20179;-81
2021/08/07 06:03:51;;;;;;;1.50;1.30;;;16.30;99.90;;;;;;5017551;28;20206;-81
2021/08/07 06:06:17;;;;;;;2.23;1.40;;;16.30;99.90;;;;;;5019225;28;20549;-81
2021/08/07 06:08:42;;;;;;;3.57;1.50;;;16.30;99.90;;;;;;5020226;28;20719;-80
2021/08/07 06:11:08;;;;;;;2.73;1.40;;;16.30;99.90;;;;;;5018894;28;20178;-81
2021/08/07 06:13:34;;;;;;;3.73;1.40;;;16.40;99.90;;;;;;5019500;28;20201;-81
2021/08/07 06:15:59;;;;;;;3.37;1.20;;;16.40;99.90;;;;;;5019979;28;20269;-81
2021/08/07 06:18:25;;;;;;;2.73;1.63;;;16.40;99.90;;;;;;5018951;28;20179;-81
2021/08/07 06:20:51;;;;;;;2.03;1.37;;;16.40;99.90;;;;;;5018342;28;20644;-80
2021/08/07 06:23:17;;;;;;;1.67;1.40;;;16.50;99.90;;;;;;5020588;28;20229;-79
2021/08/07 06:25:43;;;;;;;4.53;1.30;;;16.50;99.90;;;;;;5016679;28;20633;-80
2021/08/07 06:28:09;;;;;;;4.93;1.70;;;16.50;99.90;;;;;;5019654;28;20259;-80
2021/08/07 06:30:35;;;;;;;2.03;1.30;;;16.50;99.90;;;;;;5017746;28;20213;-80
2021/08/07 06:33:01;;;;;;;6.37;1.53;;;16.50;99.90;;;;;;5018841;28;20175;-81
2021/08/07 06:35:27;;;;;;;3.10;1.50;;;16.50;99.90;;;;;;5017115;28;20272;-80
2021/08/07 06:37:53;;;;;;;2.37;1.40;;;16.60;99.90;;;;;;5017584;28;20201;-82
2021/08/07 06:40:21;;;;;;;1.73;1.10;;;16.60;99.90;;;;;;5017222;28;20182;-80
2021/08/07 06:42:47;;;;;;;4.70;1.70;;;16.50;99.90;;;;;;5016277;28;20282;-80
2021/08/07 06:45:13;;;;;;;1.80;1.40;;;16.50;99.90;;;;;;5016661;28;20241;-80
2021/08/07 06:47:39;;;;;;;3.27;1.50;;;16.60;99.90;;;;;;5017488;28;20225;-82
2021/08/07 06:50:06;;;;;;;4.73;1.40;;;16.60;99.90;;;;;;5020321;28;20212;-80
2021/08/07 06:52:32;;;;;;;3.80;1.53;;;16.60;99.90;;;;;;5020613;28;20177;-81
2021/08/07 06:54:59;;;;;;;3.67;2.57;;;16.60;99.90;;;;;;5020831;28;20302;-81
2021/08/07 06:57:25;;;;;;;2.37;1.60;;;16.60;99.90;;;;;;5020609;28;20194;-80
2021/08/07 06:59:51;;;;;;;2.43;1.60;;;16.70;99.90;;;;;;5018587;28;20186;-81
2021/08/07 07:02:17;;;;;;;2.83;1.60;;;16.70;99.90;;;;;;5018543;28;20181;-81
2021/08/07 07:04:43;;;;;;;2.83;1.40;;;16.70;99.90;;;;;;5019745;28;20234;-80
2021/08/07 07:07:09;;;;;;;4.77;1.50;;;16.70;99.90;;;;;;5019007;28;20643;-82
2021/08/07 07:09:34;;;;;;;3.67;1.40;;;16.70;99.90;;;;;;5018258;28;20182;-80
2021/08/07 07:12:00;;;;;;;3.53;2.33;;;16.80;99.90;;;;;;5019913;28;20722;-81
2021/08/07 07:14:26;;;;;;;2.33;1.60;;;16.70;99.90;;;;;;5019618;28;20241;-80
2021/08/07 07:16:52;;;;;;;3.17;1.73;;;16.70;99.90;;;;;;5018519;28;20604;-80
2021/08/07 07:19:17;;;;;;;3.37;1.90;;;16.70;99.90;;;;;;5018422;28;20578;-81
2021/08/07 07:21:43;;;;;;;3.80;1.90;;;16.70;99.90;;;;;;5019418;28;20183;-80
2021/08/07 07:24:09;;;;;;;2.33;1.60;;;16.70;99.90;;;;;;5019883;28;20570;-82
2021/08/07 07:26:35;;;;;;;2.93;1.80;;;16.70;99.90;;;;;;5018296;28;20171;-80
2021/08/07 07:29:01;;;;;;;3.57;1.63;;;16.80;99.90;;;;;;5019646;28;20189;-80
2021/08/07 07:31:27;;;;;;;2.50;1.50;;;16.80;99.90;;;;;;5018114;28;20182;-81
2021/08/07 07:33:53;;;;;;;2.47;1.80;;;16.70;99.90;;;;;;5019332;28;20209;-81
2021/08/07 07:36:20;;;;;;;3.57;1.50;;;16.80;99.90;;;;;;5050665;22;20239;-77
2021/08/07 07:38:45;;;;;;;3.60;1.40;;;16.80;99.90;;;;;;5032823;28;20174;-78
2021/08/07 07:41:12;;;;;;;3.10;1.83;;;16.80;99.90;;;;;;5027449;28;20175;-79
2021/08/07 07:43:38;;;;;;;2.93;1.47;;;16.80;99.90;;;;;;5031503;28;20167;-78
2021/08/07 07:46:05;;;;;;;2.40;1.60;;;16.80;99.90;;;;;;5045223;28;20213;-78
2021/08/07 07:48:31;;;;;;;5.60;1.50;;;16.80;99.90;;;;;;5052104;28;20187;-79
2021/08/07 07:50:57;;;;;;;4.20;1.60;;;16.90;99.90;;;;;;5051493;28;20177;-79
2021/08/07 07:53:23;;;;;;;5.63;1.43;;;16.90;99.90;;;;;;5051885;28;20242;-78
2021/08/07 07:55:49;;;;;;;3.37;1.77;;;17.00;99.90;;;;;;5048464;28;20197;-79
2021/08/07 07:58:15;;;;;;;1.67;1.37;;;17.00;99.90;;;;;;5051967;28;20624;-79
2021/08/07 08:00:40;;;;;;;2.43;1.40;;;17.00;99.90;;;;;;5050917;28;20227;-79
2021/08/07 08:03:06;;;;;;;4.50;1.50;;;17.10;99.90;;;;;;5051044;28;20249;-79
2021/08/07 08:05:32;;;;;;;2.87;1.30;;;17.10;99.90;;;;;;5049793;28;20659;-80
2021/08/07 08:07:58;;;;;;;2.43;1.40;;;17.00;99.90;;;;;;5051180;28;20231;-77
2021/08/07 08:10:24;;;;;;;2.17;1.50;;;17.10;99.90;;;;;;5052464;28;20228;-79
2021/08/07 08:12:50;;;;;;;2.50;1.50;;;17.10;99.90;;;;;;5051507;28;20261;-79
2021/08/07 08:15:15;;;;;;;2.30;1.43;;;17.10;99.90;;;;;;5050555;28;20206;-79
2021/08/07 08:17:41;;;;;;;3.27;1.57;;;17.20;99.90;;;;;;5049940;28;20193;-78
2021/08/07 08:20:08;;;;;;;4.13;1.97;;;17.20;99.90;;;;;;5050176;28;20186;-79
2021/08/07 08:22:34;;;;;;;4.80;1.90;;;17.30;99.90;;;;;;5049756;28;20178;-79
2021/08/07 08:25:00;;;;;;;4.17;1.70;;;17.40;99.90;;;;;;5047327;28;20218;-79
2021/08/07 08:27:26;;;;;;;2.83;1.93;;;17.40;99.90;;;;;;5051536;28;20181;-79
2021/08/07 08:29:52;;;;;;;3.30;1.60;;;17.40;99.90;;;;;;5050650;28;20163;-79
2021/08/07 08:32:18;;;;;;;5.13;2.00;;;17.50;99.90;;;;;;5050853;28;20230;-79
2021/08/07 08:34:44;;;;;;;3.73;2.00;;;17.60;99.90;;;;;;5046798;28;20234;-79
2021/08/07 08:37:09;;;;;;;3.83;1.90;;;17.60;99.90;;;;;;5050179;28;20189;-78
2021/08/07 08:39:35;;;;;;;3.00;1.83;;;17.60;99.90;;;;;;5047149;28;20532;-78
2021/08/07 08:42:01;;;;;;;4.20;2.20;;;17.70;99.90;;;;;;5049495;28;20201;-79
2021/08/07 08:44:27;;;;;;;3.90;2.43;;;17.70;99.90;;;;;;5050921;28;20204;-79
2021/08/07 08:46:53;;;;;;;2.93;2.40;;;17.90;99.90;;;;;;5050095;28;20185;-80
2021/08/07 08:49:20;;;;;;;4.10;3.10;;;18.00;99.90;;;;;;5051272;28;20220;-79
2021/08/07 08:51:48;;;;;;;4.70;3.60;;;18.20;99.90;;;;;;5045789;28;20169;-79
2021/08/07 08:54:17;;;;;;;5.47;3.43;;;18.20;99.90;;;;;;5047331;28;20186;-79
2021/08/07 08:56:49;;;;;;;6.43;3.43;;;18.20;99.90;;;;;;5047319;28;20375;-79
2021/08/07 08:59:21;;;;;;;3.27;2.97;;;18.20;99.90;;;;;;5045438;28;20201;-80
2021/08/07 09:01:47;;;;;;;4.27;2.83;;;18.20;99.90;;;;;;5049654;28;20644;-79
2021/08/07 09:04:13;;;;;;;3.47;2.73;;;18.20;99.90;;;;;;5047709;28;20199;-79
2021/08/07 09:06:39;;;;;;;6.80;2.70;;;18.30;99.90;;;;;;5047539;28;20186;-78
2021/08/07 09:09:10;;;;;;;3.63;3.00;;;18.40;99.90;;;;;;5046083;28;20186;-79
2021/08/07 09:11:46;;;;;;;5.27;2.83;;;18.40;99.90;;;;;;5048893;28;20163;-79
2021/08/07 09:14:23;;;;;;;4.50;2.83;;;18.50;99.90;;;;;;5048604;28;20208;-78
2021/08/07 09:16:57;;;;;;;3.20;2.37;;;18.50;99.90;;;;;;5046720;28;20178;-79
2021/08/07 09:19:24;;;;;;;4.70;2.97;;;18.60;99.90;;;;;;5045748;28;20181;-79
2021/08/07 09:22:07;;;;;;;6.03;3.07;;;18.60;99.90;;;;;;5046354;28;20181;-80
2021/08/07 09:24:33;;;;;;;5.10;2.63;;;18.60;99.90;;;;;;5048670;28;20405;-79
2021/08/07 09:27:04;;;;;;;3.53;2.43;;;18.70;99.90;;;;;;5049428;28;20177;-80
2021/08/07 09:29:39;;;;;;;6.03;3.40;;;18.70;99.90;;;;;;5046443;28;20620;-79
2021/08/07 09:32:05;;;;;;;4.07;2.70;;;18.80;99.90;;;;;;5048043;28;20668;-79
2021/08/07 09:34:30;;;;;;;4.23;3.10;;;18.80;99.90;;;;;;5047990;28;20174;-79
2021/08/07 09:36:56;;;;;;;4.40;2.97;;;18.80;99.90;;;;;;5045718;28;20552;-79
2021/08/07 09:39:54;;;;;;;3.03;2.50;;;18.80;99.90;;;;;;5044526;28;20579;-79
2021/08/07 09:42:20;;;;;;;5.90;2.60;;;18.80;99.90;;;;;;5011496;28;20220;-79
2021/08/07 09:45:03;;;;;;;3.37;2.40;;;18.80;99.90;;;;;;5046462;28;20210;-79
2021/08/07 09:47:30;;;;;;;3.57;2.10;;;18.80;99.90;;;;;;5045742;28;20659;-79
2021/08/07 09:49:56;;;;;;;3.33;2.30;;;18.80;99.90;;;;;;5044407;28;20173;-79
2021/08/07 09:52:21;;;;;;;3.60;2.50;;;18.80;99.90;;;;;;5043077;28;20209;-79
2021/08/07 09:54:47;;;;;;;5.37;2.97;;;18.80;99.90;;;;;;5045253;28;20232;-79
2021/08/07 09:57:27;;;;;;;4.03;2.67;;;18.80;99.90;;;;;;5043391;28;20201;-80
2021/08/07 09:59:53;;;;;;;4.07;2.67;;;18.80;99.90;;;;;;5045869;28;20277;-79
2021/08/07 10:02:31;;;;;;;6.43;2.73;;;18.80;99.90;;;;;;5043592;28;20170;-79
2021/08/07 10:04:58;;;;;;;4.10;2.53;;;18.80;99.90;;;;;;5045394;28;20213;-79
2021/08/07 10:07:25;;;;;;;4.17;2.67;;;18.80;99.90;;;;;;5046931;28;20176;-79
2021/08/07 10:09:50;;;;;;;3.83;2.63;;;18.80;99.90;;;;;;5044828;28;20181;-79
2021/08/07 10:12:17;;;;;;;3.93;2.90;;;18.80;99.90;;;;;;5045432;28;20177;-79
2021/08/07 10:14:43;;;;;;;5.60;2.70;;;18.80;99.90;;;;;;5044681;28;20220;-79
2021/08/07 10:17:11;;;;;;;3.57;2.80;;;18.80;99.90;;;;;;5045499;28;20170;-79
2021/08/07 10:19:38;;;;;;;5.13;2.73;;;18.90;99.90;;;;;;5045354;28;20179;-78
2021/08/07 10:22:08;;;;;;;3.17;2.87;;;18.90;99.90;;;;;;5047262;28;20208;-79
2021/08/07 10:24:37;;;;;;;5.47;2.63;;;19.00;99.90;;;;;;5049614;28;20659;-79
2021/08/07 10:27:04;;;;;;;4.40;3.33;;;19.00;99.90;;;;;;5048247;28;20179;-79
2021/08/07 10:29:41;;;;;;;3.23;2.60;;;19.00;99.90;;;;;;5048076;28;20258;-79
2021/08/07 10:32:07;;;;;;;3.77;2.87;;;19.00;99.90;;;;;;5048963;28;20177;-79
2021/08/07 10:34:36;;;;;;;4.27;2.57;;;18.90;99.90;;;;;;5048059;28;20190;-80
2021/08/07 10:37:02;;;;;;;3.50;2.90;;;18.90;99.90;;;;;;5048246;28;20181;-80
2021/08/07 10:39:32;;;;;;;4.67;2.50;;;18.90;99.90;;;;;;5051551;28;20181;-79
2021/08/07 10:42:03;;;;;;;6.30;2.80;;;18.90;99.90;;;;;;5049989;28;20261;-79
2021/08/07 10:44:32;;;;;;;3.20;2.80;;;19.00;99.90;;;;;;5051409;28;20206;-80
2021/08/07 10:46:58;;;;;;;3.37;2.40;;;19.00;99.90;;;;;;5051014;28;20174;-80
2021/08/07 10:49:34;;;;;;;5.23;2.90;;;19.00;99.90;;;;;;5047976;28;20174;-80
2021/08/07 10:52:00;;;;;;;4.70;2.83;;;18.90;99.90;;;;;;5049410;28;20184;-79
2021/08/07 10:54:26;;;;;;;5.23;3.30;;;18.90;99.90;;;;;;5049542;28;20174;-79
2021/08/07 10:56:52;;;;;;;3.67;2.53;;;18.90;99.90;;;;;;5048215;28;20197;-79
2021/08/07 10:59:27;;;;;;;3.27;2.70;;;19.00;99.90;;;;;;5048797;28;20182;-79
2021/08/07 11:01:58;;;;;;;3.77;2.63;;;19.00;99.90;;;;;;5050768;28;20181;-80
2021/08/07 11:04:29;;;;;;;4.43;2.93;;;19.00;99.90;;;;;;5049013;28;20190;-80
2021/08/07 11:07:05;;;;;;;3.40;2.83;;;19.00;99.90;;;;;;5050571;28;20718;-79
2021/08/07 11:09:40;;;;;;;4.27;2.90;;;19.00;99.90;;;;;;5049770;28;20211;-79
2021/08/07 11:12:05;;;;;;;4.07;2.37;;;19.10;99.90;;;;;;5050876;28;20170;-80
2021/08/07 11:14:34;;;;;;;4.73;2.30;;;19.10;99.90;;;;;;5049746;28;20182;-79
2021/08/07 11:17:03;;;;;;;2.40;2.20;;;19.10;99.90;;;;;;5048674;28;20174;-80
2021/08/07 11:19:44;;;;;;;3.97;2.93;;;19.10;99.90;;;;;;5048178;28;20666;-80
2021/08/07 11:22:09;;;;;;;9.77;2.80;;;19.30;99.90;;;;;;5049697;28;20208;-79
2021/08/07 11:24:47;;;;;;;2.50;2.27;;;19.20;99.90;;;;;;5048195;28;20194;-80
2021/08/07 11:27:13;;;;;;;2.97;2.43;;;19.20;99.90;;;;;;5051194;28;20625;-79
2021/08/07 11:30:17;;;;;;;5.87;2.97;;;19.20;99.90;;;;;;5049152;28;20178;-79
2021/08/07 11:33:04;;;;;;;5.17;2.80;;;19.20;99.90;;;;;;5048293;28;20171;-78
2021/08/07 11:35:32;;;;;;;4.73;2.67;;;19.20;99.90;;;;;;5042485;28;20218;-79
2021/08/07 11:38:10;;;;;;;4.97;2.80;;;19.20;99.90;;;;;;5050133;28;20175;-79
2021/08/07 11:40:53;;;;;;;3.00;2.70;;;19.10;99.90;;;;;;5049584;28;20186;-79
2021/08/07 11:43:38;;;;;;;5.93;2.57;;;19.10;99.90;;;;;;5048065;28;20174;-79
2021/08/07 11:46:05;;;;;;;5.03;2.77;;;19.10;99.90;;;;;;5048589;28;20194;-79
2021/08/07 11:48:36;;;;;;;4.80;3.70;;;19.20;99.90;;;;;;5048447;28;20177;-79
2021/08/07 11:51:07;;;;;;;2.93;2.53;;;19.20;99.90;;;;;;5040234;28;20261;-79
2021/08/07 11:53:34;;;;;;;4.07;3.00;;;19.20;99.90;;;;;;5049165;28;20166;-79
2021/08/07 11:56:03;;;;;;;7.03;3.13;;;19.20;99.90;;;;;;5048107;28;20190;-79
2021/08/07 11:58:31;;;;;;;3.80;2.33;;;19.20;99.90;;;;;;5045082;28;20202;-78
2021/08/07 12:00:58;;;;;;;2.77;2.57;;;19.20;99.90;;;;;;5045359;28;20174;-79
2021/08/07 12:03:24;;;;;;;3.87;2.60;;;19.20;99.90;;;;;;5046838;28;20178;-78
2021/08/07 12:05:55;;;;;;;4.00;2.50;;;19.20;99.90;;;;;;5046781;28;20206;-79
2021/08/07 12:08:24;;;;;;;5.00;2.70;;;19.20;99.90;;;;;;5046535;28;20166;-78
2021/08/07 12:10:55;;;;;;;2.87;2.33;;;19.20;99.90;;;;;;5046426;28;20710;-79
2021/08/07 12:13:28;;;;;;;2.73;2.47;;;19.20;99.90;;;;;;5045443;28;20167;-79
2021/08/07 12:16:05;;;;;;;3.37;2.53;;;19.20;99.90;;;;;;5046062;28;20209;-79
2021/08/07 12:18:42;;;;;;;5.30;3.20;;;19.20;99.90;;;;;;5044921;28;20224;-79
2021/08/07 12:21:12;;;;;;;3.27;2.73;;;19.10;99.90;;;;;;5028043;28;20249;-79
2021/08/07 12:23:47;;;;;;;4.63;3.07;;;19.00;99.90;;;;;;5047267;28;20256;-79
2021/08/07 12:26:14;;;;;;;4.07;3.63;;;19.00;99.90;;;;;;5045967;28;20695;-79
2021/08/07 12:28:41;;;;;;;7.97;4.13;;;19.00;99.90;;;;;;5043985;28;20162;-79
2021/08/07 12:31:07;;;;;;;6.73;4.67;;;18.90;99.90;;;;;;5044003;28;20167;-79
2021/08/07 12:33:34;;;;;;;8.80;4.63;;;18.90;99.90;;;;;;5043596;28;20177;-79
2021/08/07 12:36:16;;;;;;;7.87;6.17;;;18.80;99.90;;;;;;5040564;28;20224;-79
2021/08/07 12:38:48;;;;;;;10.53;5.57;;;18.70;99.90;;;;;;5044169;28;20545;-79
2021/08/07 12:41:15;;;;;;;5.50;4.97;;;18.60;99.90;;;;;;5044868;28;20191;-80
2021/08/07 12:43:42;;;;;;;5.53;4.70;;;18.60;99.90;;;;;;5044345;28;20174;-79
2021/08/07 12:46:11;;;;;;;7.63;4.40;;;18.60;99.90;;;;;;5042293;28;20209;-79
2021/08/07 12:48:46;;;;;;;3.37;2.60;;;18.70;99.90;;;;;;5041739;28;20635;-79
2021/08/07 12:51:21;;;;;;;6.30;2.50;;;18.50;99.90;;;;;;5040489;28;20178;-79